sensor_id;sensor_type;location;lat;lon;timestamp;pressure;altitude;pressure_sealevel;temperature;humidity
50702;BME280;36670;50.094;8.496;2023-07-31T00:02:17;100120.38;;;23.25;47.61
50702;BME280;36670;50.094;8.496;2023-07-31T00:04:42;100117.25;;;22.97;48.83
50702;BME280;36670;50.094;8.496;2023-07-31T00:07:08;100121.03;;;23.01;49.29
50702;BME280;36670;50.094;8.496;2023-07-31T00:09:33;100123.41;;;22.90;49.19
50702;BME280;36670;50.094;8.496;2023-07-31T00:11:59;100119.19;;;23.05;48.63
50702;BME280;36670;50.094;8.496;2023-07-31T00:14:24;100116.16;;;23.10;49.18
50702;BME280;36670;50.094;8.496;2023-07-31T00:16:50;100118.94;;;23.19;49.25
50702;BME280;36670;50.094;8.496;2023-07-31T00:19:15;100115.50;;;23.13;48.54
50702;BME280;36670;50.094;8.496;2023-07-31T00:21:40;100119.31;;;23.09;48.62
50702;BME280;36670;50.094;8.496;2023-07-31T00:24:06;100116.25;;;23.23;48.43
50702;BME280;36670;50.094;8.496;2023-07-31T00:26:31;100105.28;;;23.30;48.87
50702;BME280;36670;50.094;8.496;2023-07-31T00:28:56;100107.34;;;23.21;48.30
50702;BME280;36670;50.094;8.496;2023-07-31T00:31:22;100096.00;;;22.78;49.81
50702;BME280;36670;50.094;8.496;2023-07-31T00:33:47;100105.31;;;22.70;49.91
50702;BME280;36670;50.094;8.496;2023-07-31T00:36:12;100108.63;;;22.72;50.33
50702;BME280;36670;50.094;8.496;2023-07-31T00:38:38;100104.38;;;22.57;51.01
50702;BME280;36670;50.094;8.496;2023-07-31T00:41:03;100111.63;;;22.67;49.82
50702;BME280;36670;50.094;8.496;2023-07-31T00:43:28;100102.19;;;22.93;48.91
50702;BME280;36670;50.094;8.496;2023-07-31T00:45:54;100092.09;;;22.92;50.00
50702;BME280;36670;50.094;8.496;2023-07-31T00:48:20;100092.97;;;22.83;50.28
50702;BME280;36670;50.094;8.496;2023-07-31T00:50:45;100096.44;;;23.10;49.78
50702;BME280;36670;50.094;8.496;2023-07-31T00:53:10;100097.56;;;23.18;49.25
50702;BME280;36670;50.094;8.496;2023-07-31T00:55:36;100103.16;;;22.97;49.67
50702;BME280;36670;50.094;8.496;2023-07-31T00:58:01;100101.44;;;23.13;48.60
50702;BME280;36670;50.094;8.496;2023-07-31T01:00:26;100093.88;;;23.26;49.21
50702;BME280;36670;50.094;8.496;2023-07-31T01:02:52;100107.22;;;23.08;50.01
50702;BME280;36670;50.094;8.496;2023-07-31T01:05:27;100093.16;;;23.08;49.25
50702;BME280;36670;50.094;8.496;2023-07-31T01:11:21;100084.44;;;23.01;50.20
50702;BME280;36670;50.094;8.496;2023-07-31T01:13:50;100078.72;;;22.89;50.36
50702;BME280;36670;50.094;8.496;2023-07-31T01:16:15;100082.22;;;22.56;50.77
50702;BME280;36670;50.094;8.496;2023-07-31T01:18:41;100075.78;;;22.55;51.01
50702;BME280;36670;50.094;8.496;2023-07-31T01:21:23;100078.34;;;22.69;50.28
50702;BME280;36670;50.094;8.496;2023-07-31T01:26:34;100079.41;;;22.86;49.70
50702;BME280;36670;50.094;8.496;2023-07-31T01:29:17;100082.13;;;22.73;49.76
50702;BME280;36670;50.094;8.496;2023-07-31T01:31:47;100082.22;;;22.86;49.75
50702;BME280;36670;50.094;8.496;2023-07-31T01:34:14;100081.69;;;22.62;49.92
50702;BME280;36670;50.094;8.496;2023-07-31T01:36:42;100070.00;;;22.81;50.18
50702;BME280;36670;50.094;8.496;2023-07-31T01:39:08;100066.69;;;22.79;49.98
50702;BME280;36670;50.094;8.496;2023-07-31T01:41:33;100065.09;;;22.91;49.04
50702;BME280;36670;50.094;8.496;2023-07-31T01:43:58;100055.59;;;23.04;49.00
50702;BME280;36670;50.094;8.496;2023-07-31T01:46:24;100043.50;;;22.53;50.25
50702;BME280;36670;50.094;8.496;2023-07-31T01:48:50;100049.94;;;22.53;49.74
50702;BME280;36670;50.094;8.496;2023-07-31T01:51:16;100052.00;;;22.74;49.94
50702;BME280;36670;50.094;8.496;2023-07-31T01:53:41;100037.38;;;22.80;49.15
50702;BME280;36670;50.094;8.496;2023-07-31T01:56:06;100034.84;;;22.88;49.04
50702;BME280;36670;50.094;8.496;2023-07-31T01:58:32;100042.59;;;22.91;49.41
50702;BME280;36670;50.094;8.496;2023-07-31T02:00:57;100031.13;;;22.75;49.09
50702;BME280;36670;50.094;8.496;2023-07-31T02:03:22;100033.69;;;22.89;48.68
50702;BME280;36670;50.094;8.496;2023-07-31T02:05:49;100046.78;;;22.84;48.77
50702;BME280;36670;50.094;8.496;2023-07-31T02:08:15;100034.09;;;22.78;48.63
50702;BME280;36670;50.094;8.496;2023-07-31T02:10:41;100036.81;;;22.66;48.96
50702;BME280;36670;50.094;8.496;2023-07-31T02:13:06;100039.31;;;22.89;48.98
50702;BME280;36670;50.094;8.496;2023-07-31T02:15:32;100045.13;;;22.83;48.57
50702;BME280;36670;50.094;8.496;2023-07-31T02:17:57;100047.84;;;22.71;49.21
50702;BME280;36670;50.094;8.496;2023-07-31T02:20:23;100039.31;;;22.89;48.76
50702;BME280;36670;50.094;8.496;2023-07-31T02:22:48;100037.13;;;22.94;48.65
50702;BME280;36670;50.094;8.496;2023-07-31T02:25:14;100032.88;;;22.88;48.80
50702;BME280;36670;50.094;8.496;2023-07-31T02:27:39;100035.03;;;22.82;48.69
50702;BME280;36670;50.094;8.496;2023-07-31T02:30:05;100034.09;;;22.78;48.85
50702;BME280;36670;50.094;8.496;2023-07-31T02:32:30;100034.84;;;22.88;48.10
50702;BME280;36670;50.094;8.496;2023-07-31T02:34:55;100033.25;;;22.99;48.49
50702;BME280;36670;50.094;8.496;2023-07-31T02:37:21;100034.38;;;22.86;48.12
50702;BME280;36670;50.094;8.496;2023-07-31T02:39:46;100033.47;;;22.94;48.20
50702;BME280;36670;50.094;8.496;2023-07-31T02:42:13;100037.03;;;23.03;48.23
50702;BME280;36670;50.094;8.496;2023-07-31T02:44:38;100043.50;;;23.04;48.50
50702;BME280;36670;50.094;8.496;2023-07-31T02:47:03;100038.50;;;23.09;47.83
50702;BME280;36670;50.094;8.496;2023-07-31T02:49:29;100036.38;;;23.27;47.46
50702;BME280;36670;50.094;8.496;2023-07-31T02:51:54;100042.69;;;23.24;47.47
50702;BME280;36670;50.094;8.496;2023-07-31T02:54:19;100044.59;;;23.32;47.37
50702;BME280;36670;50.094;8.496;2023-07-31T02:56:46;100047.38;;;23.20;47.40
50702;BME280;36670;50.094;8.496;2023-07-31T02:59:12;100047.75;;;23.31;47.89
50702;BME280;36670;50.094;8.496;2023-07-31T03:01:37;100052.31;;;23.23;47.66
50702;BME280;36670;50.094;8.496;2023-07-31T03:04:03;100035.28;;;23.20;47.64
50702;BME280;36670;50.094;8.496;2023-07-31T03:06:28;100028.00;;;23.18;47.81
50702;BME280;36670;50.094;8.496;2023-07-31T03:08:54;100030.31;;;22.95;48.58
50702;BME280;36670;50.094;8.496;2023-07-31T03:11:19;100033.25;;;22.78;48.79
50702;BME280;36670;50.094;8.496;2023-07-31T03:13:44;100032.84;;;22.37;49.27
50702;BME280;36670;50.094;8.496;2023-07-31T03:16:09;100031.78;;;22.50;49.55
50702;BME280;36670;50.094;8.496;2023-07-31T03:18:35;100034.81;;;22.66;48.87
50702;BME280;36670;50.094;8.496;2023-07-31T03:21:00;100038.31;;;22.63;49.25
50702;BME280;36670;50.094;8.496;2023-07-31T03:23:25;100032.78;;;22.46;48.93
50702;BME280;36670;50.094;8.496;2023-07-31T03:26:01;100042.97;;;22.59;49.93
50702;BME280;36670;50.094;8.496;2023-07-31T03:28:28;100040.50;;;22.58;49.97
50702;BME280;36670;50.094;8.496;2023-07-31T03:30:54;100028.91;;;22.59;49.91
50702;BME280;36670;50.094;8.496;2023-07-31T03:33:19;100035.09;;;22.74;49.94
50702;BME280;36670;50.094;8.496;2023-07-31T03:35:45;100046.28;;;22.82;49.41
50702;BME280;36670;50.094;8.496;2023-07-31T03:38:10;100042.75;;;22.94;49.28
50702;BME280;36670;50.094;8.496;2023-07-31T03:40:36;100048.97;;;22.79;49.68
50702;BME280;36670;50.094;8.496;2023-07-31T03:43:01;100052.63;;;23.00;49.64
50702;BME280;36670;50.094;8.496;2023-07-31T03:45:26;100041.94;;;22.94;49.95
50702;BME280;36670;50.094;8.496;2023-07-31T03:47:51;100045.75;;;23.10;48.88
50702;BME280;36670;50.094;8.496;2023-07-31T03:50:17;100039.19;;;23.27;48.99
50702;BME280;36670;50.094;8.496;2023-07-31T03:52:42;100030.94;;;23.22;49.23
50702;BME280;36670;50.094;8.496;2023-07-31T03:55:08;100035.69;;;23.30;49.27
50702;BME280;36670;50.094;8.496;2023-07-31T03:57:33;100037.81;;;23.33;49.31
50702;BME280;36670;50.094;8.496;2023-07-31T03:59:59;100042.00;;;23.27;49.00
50702;BME280;36670;50.094;8.496;2023-07-31T04:02:24;100047.69;;;23.40;49.14
50702;BME280;36670;50.094;8.496;2023-07-31T04:04:49;100034.22;;;23.45;49.00
50702;BME280;36670;50.094;8.496;2023-07-31T04:07:14;100032.06;;;23.30;49.40
50702;BME280;36670;50.094;8.496;2023-07-31T04:09:40;100036.31;;;23.15;49.13
50702;BME280;36670;50.094;8.496;2023-07-31T04:12:05;100032.16;;;22.70;50.44
50702;BME280;36670;50.094;8.496;2023-07-31T04:14:31;100024.97;;;22.52;51.02
50702;BME280;36670;50.094;8.496;2023-07-31T04:16:56;100023.47;;;22.54;50.98
50702;BME280;36670;50.094;8.496;2023-07-31T04:19:21;100025.41;;;22.32;51.68
50702;BME280;36670;50.094;8.496;2023-07-31T04:21:46;100016.53;;;22.52;51.18
50702;BME280;36670;50.094;8.496;2023-07-31T04:24:12;100013.63;;;22.39;51.21
50702;BME280;36670;50.094;8.496;2023-07-31T04:26:37;100011.25;;;22.50;50.97
50702;BME280;36670;50.094;8.496;2023-07-31T04:29:02;100006.22;;;22.64;50.67
50702;BME280;36670;50.094;8.496;2023-07-31T04:31:27;100014.66;;;22.64;50.60
50702;BME280;36670;50.094;8.496;2023-07-31T04:33:53;100010.97;;;22.94;50.10
50702;BME280;36670;50.094;8.496;2023-07-31T04:36:18;100009.78;;;22.74;50.05
50702;BME280;36670;50.094;8.496;2023-07-31T04:38:43;100009.16;;;22.68;49.89
50702;BME280;36670;50.094;8.496;2023-07-31T04:41:09;99995.19;;;22.21;51.03
50702;BME280;36670;50.094;8.496;2023-07-31T04:43:34;100013.38;;;22.23;50.66
50702;BME280;36670;50.094;8.496;2023-07-31T04:45:59;100005.88;;;22.36;50.49
50702;BME280;36670;50.094;8.496;2023-07-31T04:48:24;100009.97;;;22.68;50.05
50702;BME280;36670;50.094;8.496;2023-07-31T04:50:50;100008.28;;;22.76;50.21
50702;BME280;36670;50.094;8.496;2023-07-31T04:53:15;100011.06;;;22.55;49.55
50702;BME280;36670;50.094;8.496;2023-07-31T04:55:40;100004.59;;;22.25;50.32
50702;BME280;36670;50.094;8.496;2023-07-31T04:58:06;100005.16;;;22.09;51.45
50702;BME280;36670;50.094;8.496;2023-07-31T05:00:31;100003.91;;;22.37;50.61
50702;BME280;36670;50.094;8.496;2023-07-31T05:02:56;100011.00;;;21.95;51.05
50702;BME280;36670;50.094;8.496;2023-07-31T05:05:22;100008.75;;;21.80;51.31
50702;BME280;36670;50.094;8.496;2023-07-31T05:07:47;100015.50;;;21.88;51.42
50702;BME280;36670;50.094;8.496;2023-07-31T05:10:12;100017.91;;;22.07;51.46
50702;BME280;36670;50.094;8.496;2023-07-31T05:12:38;100016.81;;;22.29;50.61
50702;BME280;36670;50.094;8.496;2023-07-31T05:15:03;100010.97;;;22.04;51.09
50702;BME280;36670;50.094;8.496;2023-07-31T05:17:29;100003.47;;;22.17;50.56
50702;BME280;36670;50.094;8.496;2023-07-31T05:19:54;100009.28;;;22.50;49.99
50702;BME280;36670;50.094;8.496;2023-07-31T05:22:20;100007.69;;;22.32;50.13
50702;BME280;36670;50.094;8.496;2023-07-31T05:24:45;100013.41;;;22.14;50.48
50702;BME280;36670;50.094;8.496;2023-07-31T05:27:10;100011.19;;;22.29;50.89
50702;BME280;36670;50.094;8.496;2023-07-31T05:29:37;100011.66;;;22.31;50.43
50702;BME280;36670;50.094;8.496;2023-07-31T05:32:02;100016.13;;;22.41;50.39
50702;BME280;36670;50.094;8.496;2023-07-31T05:34:28;100004.75;;;22.58;50.39
50702;BME280;36670;50.094;8.496;2023-07-31T05:36:53;100018.06;;;22.10;51.43
50702;BME280;36670;50.094;8.496;2023-07-31T05:39:18;100004.00;;;22.10;51.35
50702;BME280;36670;50.094;8.496;2023-07-31T05:41:45;100007.56;;;21.90;52.47
50702;BME280;36670;50.094;8.496;2023-07-31T05:44:10;100007.69;;;22.32;51.06
50702;BME280;36670;50.094;8.496;2023-07-31T05:46:35;100008.03;;;22.01;51.85
50702;BME280;36670;50.094;8.496;2023-07-31T05:49:01;100007.13;;;22.17;51.39
50702;BME280;36670;50.094;8.496;2023-07-31T05:51:27;99991.50;;;22.29;50.93
50702;BME280;36670;50.094;8.496;2023-07-31T05:53:52;99996.47;;;22.62;50.46
50702;BME280;36670;50.094;8.496;2023-07-31T05:56:18;99997.34;;;22.75;49.85
50702;BME280;36670;50.094;8.496;2023-07-31T05:58:43;99993.84;;;22.78;49.85
50702;BME280;36670;50.094;8.496;2023-07-31T06:01:08;99997.00;;;22.76;49.96
50702;BME280;36670;50.094;8.496;2023-07-31T06:03:33;99985.97;;;22.92;49.86
50702;BME280;36670;50.094;8.496;2023-07-31T06:05:59;99973.88;;;22.71;49.81
50702;BME280;36670;50.094;8.496;2023-07-31T06:08:24;99969.63;;;22.86;49.34
50702;BME280;36670;50.094;8.496;2023-07-31T06:10:50;99970.66;;;22.60;50.00
50702;BME280;36670;50.094;8.496;2023-07-31T06:13:15;99977.72;;;23.08;49.17
50702;BME280;36670;50.094;8.496;2023-07-31T06:15:40;99978.19;;;22.68;50.10
50702;BME280;36670;50.094;8.496;2023-07-31T06:18:06;99980.91;;;23.40;49.17
50702;BME280;36670;50.094;8.496;2023-07-31T06:20:33;99989.50;;;23.44;49.06
50702;BME280;36670;50.094;8.496;2023-07-31T06:22:59;99994.53;;;22.96;49.35
50702;BME280;36670;50.094;8.496;2023-07-31T06:25:24;99990.72;;;23.22;49.06
50702;BME280;36670;50.094;8.496;2023-07-31T06:27:49;99987.25;;;23.37;48.78
50702;BME280;36670;50.094;8.496;2023-07-31T06:30:15;99987.19;;;23.58;49.11
50702;BME280;36670;50.094;8.496;2023-07-31T06:32:40;99972.91;;;23.88;48.47
50702;BME280;36670;50.094;8.496;2023-07-31T06:35:06;99981.53;;;24.29;47.65
50702;BME280;36670;50.094;8.496;2023-07-31T06:37:31;99989.28;;;24.32;47.48
50702;BME280;36670;50.094;8.496;2023-07-31T06:39:56;99979.38;;;24.50;46.77
50702;BME280;36670;50.094;8.496;2023-07-31T06:42:22;99997.59;;;24.16;47.54
50702;BME280;36670;50.094;8.496;2023-07-31T06:44:47;100000.34;;;24.37;46.71
50702;BME280;36670;50.094;8.496;2023-07-31T06:47:12;99987.69;;;23.85;47.13
50702;BME280;36670;50.094;8.496;2023-07-31T06:49:38;99991.34;;;23.73;47.67
50702;BME280;36670;50.094;8.496;2023-07-31T06:52:03;99997.25;;;23.47;47.74
50702;BME280;36670;50.094;8.496;2023-07-31T06:54:28;100003.28;;;23.58;48.57
50702;BME280;36670;50.094;8.496;2023-07-31T06:56:54;99987.19;;;23.25;49.05
50702;BME280;36670;50.094;8.496;2023-07-31T06:59:19;99983.97;;;23.47;48.29
50702;BME280;36670;50.094;8.496;2023-07-31T07:01:44;99993.16;;;23.57;48.67
50702;BME280;36670;50.094;8.496;2023-07-31T07:04:09;99993.53;;;23.22;48.93
50702;BME280;36670;50.094;8.496;2023-07-31T07:06:35;99991.16;;;23.57;48.65
50702;BME280;36670;50.094;8.496;2023-07-31T07:09:00;99990.84;;;23.71;48.88
50702;BME280;36670;50.094;8.496;2023-07-31T07:11:25;99988.19;;;23.87;48.44
50702;BME280;36670;50.094;8.496;2023-07-31T07:13:51;99976.25;;;23.57;48.43
50702;BME280;36670;50.094;8.496;2023-07-31T07:16:16;99972.56;;;24.02;47.55
50702;BME280;36670;50.094;8.496;2023-07-31T07:18:41;99976.69;;;24.05;48.00
50702;BME280;36670;50.094;8.496;2023-07-31T07:21:07;99968.34;;;23.96;47.77
50702;BME280;36670;50.094;8.496;2023-07-31T07:23:32;99952.25;;;24.33;47.83
50702;BME280;36670;50.094;8.496;2023-07-31T07:25:57;99954.94;;;24.42;47.23
50702;BME280;36670;50.094;8.496;2023-07-31T07:28:22;99949.75;;;24.44;47.62
50702;BME280;36670;50.094;8.496;2023-07-31T07:30:54;99939.63;;;24.56;46.37
50702;BME280;36670;50.094;8.496;2023-07-31T07:33:19;99927.16;;;24.97;46.85
50702;BME280;36670;50.094;8.496;2023-07-31T07:35:45;99929.50;;;24.95;46.13
50702;BME280;36670;50.094;8.496;2023-07-31T07:38:10;99928.31;;;24.80;46.33
50702;BME280;36670;50.094;8.496;2023-07-31T07:40:39;99920.44;;;25.02;45.33
50702;BME280;36670;50.094;8.496;2023-07-31T07:43:04;99932.69;;;24.53;46.22
50702;BME280;36670;50.094;8.496;2023-07-31T07:45:30;99928.72;;;24.95;46.24
50702;BME280;36670;50.094;8.496;2023-07-31T07:47:55;99923.38;;;25.21;45.64
50702;BME280;36670;50.094;8.496;2023-07-31T07:50:20;99919.09;;;24.83;45.55
50702;BME280;36670;50.094;8.496;2023-07-31T07:52:45;99928.09;;;25.01;46.08
50702;BME280;36670;50.094;8.496;2023-07-31T07:55:11;99927.78;;;24.91;45.87
50702;BME280;36670;50.094;8.496;2023-07-31T07:57:36;99928.34;;;24.96;46.31
50702;BME280;36670;50.094;8.496;2023-07-31T08:00:01;99918.06;;;25.48;45.35
50702;BME280;36670;50.094;8.496;2023-07-31T08:02:27;99928.59;;;25.80;45.05
50702;BME280;36670;50.094;8.496;2023-07-31T08:04:52;99926.31;;;25.25;45.04
50702;BME280;36670;50.094;8.496;2023-07-31T08:07:18;99928.19;;;25.33;45.03
50702;BME280;36670;50.094;8.496;2023-07-31T08:09:43;99928.59;;;25.19;45.13
50702;BME280;36670;50.094;8.496;2023-07-31T08:12:08;99916.03;;;24.88;45.80
50702;BME280;36670;50.094;8.496;2023-07-31T08:14:33;99923.78;;;24.92;45.39
50702;BME280;36670;50.094;8.496;2023-07-31T08:17:00;99920.59;;;24.93;45.98
50702;BME280;36670;50.094;8.496;2023-07-31T08:19:25;99922.16;;;25.07;46.36
50702;BME280;36670;50.094;8.496;2023-07-31T08:21:50;99900.69;;;24.74;46.36
50702;BME280;36670;50.094;8.496;2023-07-31T08:24:16;99905.72;;;24.80;46.78
50702;BME280;36670;50.094;8.496;2023-07-31T08:26:41;99894.59;;;25.16;45.61
50702;BME280;36670;50.094;8.496;2023-07-31T08:29:06;99897.13;;;25.49;45.27
50702;BME280;36670;50.094;8.496;2023-07-31T08:31:32;99892.84;;;25.55;45.24
50702;BME280;36670;50.094;8.496;2023-07-31T08:33:57;99889.66;;;25.57;44.93
50702;BME280;36670;50.094;8.496;2023-07-31T08:36:22;99903.41;;;25.43;45.21
50702;BME280;36670;50.094;8.496;2023-07-31T08:38:48;99905.59;;;25.33;45.38
50702;BME280;36670;50.094;8.496;2023-07-31T08:41:13;99905.88;;;25.76;44.89
50702;BME280;36670;50.094;8.496;2023-07-31T08:43:39;99899.84;;;25.62;44.37
50702;BME280;36670;50.094;8.496;2023-07-31T08:46:05;99894.00;;;25.38;44.86
50702;BME280;36670;50.094;8.496;2023-07-31T08:48:31;99897.84;;;25.62;45.31
50702;BME280;36670;50.094;8.496;2023-07-31T08:50:56;99901.19;;;26.00;44.54
50702;BME280;36670;50.094;8.496;2023-07-31T08:53:22;99903.13;;;25.96;44.42
50702;BME280;36670;50.094;8.496;2023-07-31T08:55:48;99909.22;;;25.34;45.21
50702;BME280;36670;50.094;8.496;2023-07-31T08:58:14;99905.97;;;25.48;45.11
50702;BME280;36670;50.094;8.496;2023-07-31T09:00:41;99903.41;;;25.43;44.81
50702;BME280;36670;50.094;8.496;2023-07-31T09:03:13;99893.00;;;25.47;44.69
50702;BME280;36670;50.094;8.496;2023-07-31T09:05:42;99900.97;;;25.29;45.10
50702;BME280;36670;50.094;8.496;2023-07-31T09:08:09;99893.31;;;25.13;45.60
50702;BME280;36670;50.094;8.496;2023-07-31T09:10:35;99900.94;;;25.41;45.31
50702;BME280;36670;50.094;8.496;2023-07-31T09:13:01;99892.84;;;25.71;44.69
50702;BME280;36670;50.094;8.496;2023-07-31T09:15:27;99895.13;;;25.66;44.32
50702;BME280;36670;50.094;8.496;2023-07-31T09:18:00;99886.38;;;25.71;44.91
50702;BME280;36670;50.094;8.496;2023-07-31T09:20:26;99886.00;;;25.41;45.44
50702;BME280;36670;50.094;8.496;2023-07-31T09:22:52;99870.78;;;25.61;44.99
50702;BME280;36670;50.094;8.496;2023-07-31T09:25:26;99871.38;;;25.86;44.83
50702;BME280;36670;50.094;8.496;2023-07-31T09:27:58;99873.78;;;25.68;45.11
50702;BME280;36670;50.094;8.496;2023-07-31T09:30:24;99873.44;;;25.54;45.20
50702;BME280;36670;50.094;8.496;2023-07-31T09:32:50;99869.25;;;25.99;45.16
50702;BME280;36670;50.094;8.496;2023-07-31T09:35:29;99878.69;;;25.87;44.40
50702;BME280;36670;50.094;8.496;2023-07-31T09:38:06;99881.53;;;25.71;44.69
50702;BME280;36670;50.094;8.496;2023-07-31T09:40:36;99876.78;;;25.92;45.26
50702;BME280;36670;50.094;8.496;2023-07-31T09:43:23;99870.56;;;25.86;45.10
50702;BME280;36670;50.094;8.496;2023-07-31T09:45:54;99871.59;;;25.62;44.89
50702;BME280;36670;50.094;8.496;2023-07-31T09:48:23;99866.66;;;25.59;44.97
50702;BME280;36670;50.094;8.496;2023-07-31T09:50:50;99857.69;;;25.88;45.36
50702;BME280;36670;50.094;8.496;2023-07-31T09:53:16;99846.31;;;25.85;44.72
50702;BME280;36670;50.094;8.496;2023-07-31T09:55:42;99844.84;;;26.07;44.66
50702;BME280;36670;50.094;8.496;2023-07-31T09:58:12;99845.44;;;26.16;43.53
50702;BME280;36670;50.094;8.496;2023-07-31T10:00:38;99833.47;;;26.62;43.11
50702;BME280;36670;50.094;8.496;2023-07-31T10:03:08;99829.22;;;26.72;43.07
50702;BME280;36670;50.094;8.496;2023-07-31T10:05:39;99824.88;;;27.21;42.46
50702;BME280;36670;50.094;8.496;2023-07-31T10:08:08;99826.19;;;27.47;41.86
50702;BME280;36670;50.094;8.496;2023-07-31T10:10:35;99831.53;;;27.52;41.47
50702;BME280;36670;50.094;8.496;2023-07-31T10:13:01;99818.09;;;27.25;41.11
50702;BME280;36670;50.094;8.496;2023-07-31T10:15:27;99826.44;;;27.38;41.54
50702;BME280;36670;50.094;8.496;2023-07-31T10:17:53;99810.81;;;27.48;41.03
50702;BME280;36670;50.094;8.496;2023-07-31T10:20:20;99802.16;;;27.17;40.85
50702;BME280;36670;50.094;8.496;2023-07-31T10:22:46;99805.97;;;26.63;41.18
50702;BME280;36670;50.094;8.496;2023-07-31T10:25:11;99815.16;;;26.56;41.96
50702;BME280;36670;50.094;8.496;2023-07-31T10:27:38;99798.72;;;26.65;41.60
50702;BME280;36670;50.094;8.496;2023-07-31T10:30:05;99796.28;;;26.44;41.68
50702;BME280;36670;50.094;8.496;2023-07-31T10:32:33;99801.06;;;26.79;41.75
50702;BME280;36670;50.094;8.496;2023-07-31T10:34:58;99797.00;;;27.00;42.45
50702;BME280;36670;50.094;8.496;2023-07-31T10:37:35;99792.25;;;27.54;41.95
50702;BME280;36670;50.094;8.496;2023-07-31T10:40:11;99794.28;;;27.53;41.52
50702;BME280;36670;50.094;8.496;2023-07-31T10:45:10;99778.03;;;27.77;40.29
50702;BME280;36670;50.094;8.496;2023-07-31T10:47:45;99789.97;;;27.36;40.65
50702;BME280;36670;50.094;8.496;2023-07-31T10:50:22;99787.09;;;26.90;41.48
50702;BME280;36670;50.094;8.496;2023-07-31T10:52:49;99796.19;;;27.22;41.32
50702;BME280;36670;50.094;8.496;2023-07-31T10:55:24;99789.59;;;27.38;41.36
50702;BME280;36670;50.094;8.496;2023-07-31T10:57:50;99771.72;;;27.61;40.37
50702;BME280;36670;50.094;8.496;2023-07-31T11:03:03;99767.72;;;28.22;39.39
50702;BME280;36670;50.094;8.496;2023-07-31T11:05:49;99770.75;;;28.71;39.39
50702;BME280;36670;50.094;8.496;2023-07-31T11:08:26;99766.25;;;28.66;38.80
50702;BME280;36670;50.094;8.496;2023-07-31T11:13:27;99762.41;;;28.51;38.44
50702;BME280;36670;50.094;8.496;2023-07-31T11:15:52;99763.44;;;28.70;38.53
50702;BME280;36670;50.094;8.496;2023-07-31T11:18:17;99758.59;;;28.70;37.39
50702;BME280;36670;50.094;8.496;2023-07-31T11:20:43;99748.84;;;28.34;38.07
50702;BME280;36670;50.094;8.496;2023-07-31T11:23:10;99751.47;;;28.19;38.35
50702;BME280;36670;50.094;8.496;2023-07-31T11:25:37;99755.84;;;27.83;38.95
50702;BME280;36670;50.094;8.496;2023-07-31T11:28:13;99757.00;;;27.78;38.88
50702;BME280;36670;50.094;8.496;2023-07-31T11:30:39;99751.06;;;27.90;39.57
50702;BME280;36670;50.094;8.496;2023-07-31T11:33:10;99743.69;;;28.13;38.24
50702;BME280;36670;50.094;8.496;2023-07-31T11:35:46;99752.34;;;27.66;39.58
50702;BME280;36670;50.094;8.496;2023-07-31T11:38:21;99741.72;;;27.59;39.37
50702;BME280;36670;50.094;8.496;2023-07-31T11:40:48;99739.81;;;27.67;39.35
50702;BME280;36670;50.094;8.496;2023-07-31T11:43:13;99734.97;;;27.98;38.58
50702;BME280;36670;50.094;8.496;2023-07-31T11:45:45;99729.88;;;28.11;39.40
50702;BME280;36670;50.094;8.496;2023-07-31T11:48:18;99726.63;;;28.43;37.88
50702;BME280;36670;50.094;8.496;2023-07-31T11:50:44;99729.22;;;28.97;37.75
50702;BME280;36670;50.094;8.496;2023-07-31T11:53:11;99720.13;;;28.80;37.76
50702;BME280;36670;50.094;8.496;2023-07-31T11:55:38;99714.38;;;29.21;37.37
50702;BME280;36670;50.094;8.496;2023-07-31T11:58:04;99719.06;;;28.95;37.48
50702;BME280;36670;50.094;8.496;2023-07-31T12:00:30;99718.72;;;29.04;37.17
50702;BME280;36670;50.094;8.496;2023-07-31T12:02:55;99724.91;;;28.69;37.45
50702;BME280;36670;50.094;8.496;2023-07-31T12:05:22;99730.44;;;28.58;37.92
50702;BME280;36670;50.094;8.496;2023-07-31T12:07:50;99725.53;;;28.92;37.63
50702;BME280;36670;50.094;8.496;2023-07-31T12:10:42;99728.09;;;28.64;38.01
50702;BME280;36670;50.094;8.496;2023-07-31T12:13:12;99726.13;;;28.34;37.92
50702;BME280;36670;50.094;8.496;2023-07-31T12:15:45;99710.47;;;28.13;38.05
50702;BME280;36670;50.094;8.496;2023-07-31T12:18:15;99710.16;;;27.91;38.25
50702;BME280;36670;50.094;8.496;2023-07-31T12:20:48;99717.31;;;27.82;39.17
50702;BME280;36670;50.094;8.496;2023-07-31T12:23:19;99698.06;;;27.64;39.13
50702;BME280;36670;50.094;8.496;2023-07-31T12:25:44;99699.81;;;27.76;39.85
50702;BME280;36670;50.094;8.496;2023-07-31T12:28:10;99708.25;;;27.69;39.27
50702;BME280;36670;50.094;8.496;2023-07-31T12:30:40;99705.13;;;28.08;39.46
50702;BME280;36670;50.094;8.496;2023-07-31T12:33:12;99702.91;;;28.24;39.09
50702;BME280;36670;50.094;8.496;2023-07-31T12:35:38;99700.88;;;28.63;38.80
50702;BME280;36670;50.094;8.496;2023-07-31T12:38:05;99702.69;;;28.06;38.72
50702;BME280;36670;50.094;8.496;2023-07-31T12:40:31;99698.53;;;28.34;38.95
50702;BME280;36670;50.094;8.496;2023-07-31T12:42:56;99691.41;;;28.14;39.21
50702;BME280;36670;50.094;8.496;2023-07-31T12:45:21;99684.63;;;28.22;38.97
50702;BME280;36670;50.094;8.496;2023-07-31T12:47:48;99683.22;;;28.80;38.89
50702;BME280;36670;50.094;8.496;2023-07-31T12:50:13;99675.53;;;29.33;38.78
50702;BME280;36670;50.094;8.496;2023-07-31T12:52:39;99663.88;;;28.97;38.36
50702;BME280;36670;50.094;8.496;2023-07-31T12:55:04;99659.06;;;29.08;37.94
50702;BME280;36670;50.094;8.496;2023-07-31T12:57:30;99656.25;;;29.78;37.14
50702;BME280;36670;50.094;8.496;2023-07-31T12:59:55;99649.16;;;30.35;35.95
50702;BME280;36670;50.094;8.496;2023-07-31T13:02:20;99648.72;;;30.18;35.80
50702;BME280;36670;50.094;8.496;2023-07-31T13:04:46;99640.09;;;29.96;35.62
50702;BME280;36670;50.094;8.496;2023-07-31T13:07:11;99660.28;;;29.70;35.85